Time,TemperatureF,DewpointF,PressureIn,WindDirection,WindDirectionDegrees,WindSpeedMPH,WindSpeedGustMPH,Humidity,HourlyPrecipIn,Conditions,Clouds,dailyrainin,SoftwareType,DateUTC
2013-06-29 00:00:00,72.0,62.8,29.72,East,90,0.0,4.0,73,0.00,,,0.00,Weather View 32 v70,2013-06-29 04:00:00,
2013-06-29 00:10:00,72.0,62.8,29.72,East,90,0.0,4.0,73,0.00,,,0.04,Weather View 32 v70,2013-06-29 04:10:00,
2013-06-29 00:15:00,72.0,62.8,29.73,East,90,0.0,4.0,73,0.00,,,0.07,Weather View 32 v70,2013-06-29 04:15:00,
2013-06-29 00:20:00,72.0,62.8,29.71,East,90,0.0,4.0,73,0.00,,,0.10,Weather View 32 v70,2013-06-29 04:20:00,
2013-06-29 00:25:00,72.0,62.8,29.71,East,90,0.0,4.0,73,0.00,,,0.12,Weather View 32 v70,2013-06-29 04:25:00,
2013-06-29 00:30:00,72.0,62.8,29.71,East,90,0.0,4.0,73,0.00,,,0.13,Weather View 32 v70,2013-06-29 04:30:00,
2013-06-29 00:35:00,71.0,61.9,29.71,East,90,0.0,4.0,73,0.00,,,0.16,Weather View 32 v70,2013-06-29 04:35:00,
2013-06-29 00:40:00,71.0,61.9,29.71,East,90,0.0,4.0,73,0.00,,,0.16,Weather View 32 v70,2013-06-29 04:40:00,
2013-06-29 00:45:00,71.0,61.9,29.78,East,90,0.0,4.0,73,0.28,,,0.21,Weather View 32 v70,2013-06-29 04:45:00,
2013-06-29 00:50:00,71.0,61.9,29.76,East,90,0.0,4.0,73,0.28,,,0.23,Weather View 32 v70,2013-06-29 04:50:00,
2013-06-29 00:55:00,71.0,61.9,29.76,East,90,0.0,3.0,73,0.28,,,0.26,Weather View 32 v70,2013-06-29 04:55:00,
2013-06-29 01:00:00,71.0,61.9,29.73,East,90,0.0,3.0,73,0.28,,,0.28,Weather View 32 v70,2013-06-29 05:00:00,
2013-06-29 01:10:00,71.0,61.5,29.73,East,90,0.0,3.0,72,0.29,,,0.33,Weather View 32 v70,2013-06-29 05:10:00,
2013-06-29 01:15:00,71.0,61.5,29.73,East,90,0.0,3.0,72,0.28,,,0.35,Weather View 32 v70,2013-06-29 05:15:00,
2013-06-29 01:20:00,71.0,61.5,29.72,East,90,0.0,3.0,72,0.27,,,0.37,Weather View 32 v70,2013-06-29 05:20:00,
2013-06-29 01:25:00,71.0,61.5,29.72,East,90,0.0,3.0,72,0.27,,,0.39,Weather View 32 v70,2013-06-29 05:25:00,
2013-06-29 01:30:00,71.0,61.5,29.73,East,90,0.0,3.0,72,0.28,,,0.41,Weather View 32 v70,2013-06-29 05:30:00,
2013-06-29 01:35:00,71.0,61.5,29.73,East,90,0.0,3.0,72,0.27,,,0.43,Weather View 32 v70,2013-06-29 05:35:00,
2013-06-29 01:40:00,71.0,61.5,29.73,East,90,0.0,3.0,72,0.26,,,0.45,Weather View 32 v70,2013-06-29 05:40:00,
2013-06-29 01:50:00,71.0,61.5,29.72,East,90,0.0,0.0,72,0.25,,,0.48,Weather View 32 v70,2013-06-29 05:50:00,
2013-06-29 01:55:00,71.0,61.5,29.72,East,90,0.0,0.0,72,0.24,,,0.50,Weather View 32 v70,2013-06-29 05:55:00,
2013-06-29 02:00:00,71.0,61.5,29.72,East,90,0.0,0.0,72,0.23,,,0.51,Weather View 32 v70,2013-06-29 06:00:00,
2013-06-29 02:10:00,71.0,63.8,29.70,East,90,0.0,0.0,78,0.21,,,0.54,Weather View 32 v70,2013-06-29 06:10:00,
2013-06-29 02:20:00,71.0,61.1,29.70,East,90,0.0,0.0,71,0.20,,,0.57,Weather View 32 v70,2013-06-29 06:20:00,
2013-06-29 10:20:00,75.0,67.3,29.74,NW,315,0.0,0.0,77,0.00,,,0.94,Weather View 32 v70,2013-06-29 14:20:00,
2013-06-29 10:25:00,75.0,66.1,29.74,NW,315,0.0,0.0,74,0.00,,,0.94,Weather View 32 v70,2013-06-29 14:25:00,
2013-06-29 10:30:00,75.0,67.6,29.74,NW,315,0.0,0.0,78,0.00,,,0.94,Weather View 32 v70,2013-06-29 14:30:00,
2013-06-29 10:35:00,76.0,67.9,29.74,NW,315,0.0,0.0,76,0.00,,,0.94,Weather View 32 v70,2013-06-29 14:35:00,
2013-06-29 10:40:00,76.0,69.4,29.74,NW,315,0.0,0.0,80,0.00,,,0.94,Weather View 32 v70,2013-06-29 14:40:00,
2013-06-29 10:50:00,76.0,68.6,29.74,East,90,0.0,0.0,78,0.00,,,0.94,Weather View 32 v70,2013-06-29 14:50:00,
2013-06-29 10:55:00,76.0,68.6,29.74,East,90,0.0,0.0,78,0.00,,,0.94,Weather View 32 v70,2013-06-29 14:55:00,
2013-06-29 11:05:00,76.0,68.6,29.74,NE,45,0.0,0.0,78,0.00,,,0.94,Weather View 32 v70,2013-06-29 15:05:00,
2013-06-29 11:10:00,76.0,69.4,29.74,NE,45,0.0,0.0,80,0.00,,,0.94,Weather View 32 v70,2013-06-29 15:10:00,
2013-06-29 11:15:00,76.0,68.6,29.74,NE,45,0.0,0.0,78,0.00,,,0.94,Weather View 32 v70,2013-06-29 15:15:00,
2013-06-29 11:25:00,77.0,70.7,29.74,North,360,0.0,0.0,81,0.00,,,0.94,Weather View 32 v70,2013-06-29 15:25:00,
2013-06-29 11:30:00,77.0,70.7,29.73,North,360,0.0,0.0,81,0.00,,,0.94,Weather View 32 v70,2013-06-29 15:30:00,
2013-06-29 11:35:00,78.0,71.7,29.73,North,360,0.0,0.0,81,0.00,,,0.94,Weather View 32 v70,2013-06-29 15:35:00,
2013-06-29 11:40:00,78.0,71.7,29.73,NE,45,0.0,0.0,81,0.00,,,0.94,Weather View 32 v70,2013-06-29 15:40:00,
2013-06-29 11:50:00,79.0,72.6,29.73,NE,45,0.0,0.0,81,0.00,,,0.94,Weather View 32 v70,2013-06-29 15:50:00,
2013-06-29 11:55:00,80.0,73.6,29.73,NE,45,0.0,0.0,81,0.00,,,0.94,Weather View 32 v70,2013-06-29 15:55:00,
2013-06-29 12:00:00,80.0,73.6,29.72,NE,45,0.0,0.0,81,0.00,,,0.94,Weather View 32 v70,2013-06-29 16:00:00,
2013-06-29 12:05:00,80.0,73.6,29.72,NW,315,0.0,0.0,81,0.00,,,0.94,Weather View 32 v70,2013-06-29 16:05:00,
2013-06-29 12:10:00,81.0,74.6,29.73,North,360,0.0,0.0,81,0.00,,,0.94,Weather View 32 v70,2013-06-29 16:10:00,
2013-06-29 12:15:00,81.0,74.6,29.73,North,360,0.0,0.0,81,0.00,,,0.94,Weather View 32 v70,2013-06-29 16:15:00,
2013-06-29 12:25:00,81.0,74.6,29.73,North,360,0.0,0.0,81,0.00,,,0.94,Weather View 32 v70,2013-06-29 16:25:00,
2013-06-29 12:30:00,82.0,75.6,29.72,North,360,0.0,0.0,81,0.00,,,0.94,Weather View 32 v70,2013-06-29 16:30:00,
2013-06-29 12:35:00,82.0,75.6,29.72,North,360,0.0,0.0,81,0.00,,,0.94,Weather View 32 v70,2013-06-29 16:35:00,
2013-06-29 12:40:00,82.0,75.6,29.72,NE,45,0.0,0.0,81,0.00,,,0.94,Weather View 32 v70,2013-06-29 16:40:00,
2013-06-29 12:45:00,83.0,76.9,29.72,NE,45,0.0,0.0,82,0.00,,,0.94,Weather View 32 v70,2013-06-29 16:45:00,
2013-06-29 12:50:00,83.0,76.9,29.72,East,90,0.0,0.0,82,0.00,,,0.94,Weather View 32 v70,2013-06-29 16:50:00,
2013-06-29 12:55:00,83.0,76.9,29.72,North,360,0.0,0.0,82,0.00,,,0.94,Weather View 32 v70,2013-06-29 16:55:00,
2013-06-29 13:00:00,84.0,78.3,29.72,North,360,0.0,0.0,83,0.00,,,0.94,Weather View 32 v70,2013-06-29 17:00:00,
2013-06-29 13:05:00,84.0,78.3,29.72,East,90,0.0,0.0,83,0.00,,,0.94,Weather View 32 v70,2013-06-29 17:05:00,
2013-06-29 13:10:00,84.0,78.3,29.72,NE,45,0.0,0.0,83,0.00,,,0.94,Weather View 32 v70,2013-06-29 17:10:00,
2013-06-29 13:15:00,85.0,79.2,29.72,NE,45,0.0,0.0,83,0.00,,,0.94,Weather View 32 v70,2013-06-29 17:15:00,
2013-06-29 13:20:00,85.0,79.2,29.71,NE,45,0.0,0.0,83,0.00,,,0.94,Weather View 32 v70,2013-06-29 17:20:00,
2013-06-29 13:30:00,85.0,79.2,29.71,NE,45,0.0,0.0,83,0.00,,,0.94,Weather View 32 v70,2013-06-29 17:30:00,
2013-06-29 13:35:00,85.0,79.2,29.71,NE,45,0.0,0.0,83,0.00,,,0.94,Weather View 32 v70,2013-06-29 17:35:00,
2013-06-29 13:40:00,86.0,80.2,29.71,NE,45,0.0,0.0,83,0.00,,,0.94,Weather View 32 v70,2013-06-29 17:40:00,
2013-06-29 13:45:00,86.0,80.2,29.71,NE,45,0.0,0.0,83,0.00,,,0.94,Weather View 32 v70,2013-06-29 17:45:00,
2013-06-29 13:50:00,86.0,80.2,29.70,NE,45,0.0,0.0,83,0.00,,,0.94,Weather View 32 v70,2013-06-29 17:50:00,
2013-06-29 13:55:00,87.0,81.2,29.70,NE,45,0.0,0.0,83,0.00,,,0.94,Weather View 32 v70,2013-06-29 17:55:00,
2013-06-29 14:00:00,87.0,81.2,29.70,NE,45,0.0,0.0,83,0.00,,,0.94,Weather View 32 v70,2013-06-29 18:00:00,
2013-06-29 14:05:00,87.0,81.2,29.70,NW,315,0.0,0.0,83,0.00,,,0.94,Weather View 32 v70,2013-06-29 18:05:00,
2013-06-29 14:10:00,88.0,82.2,29.70,NW,315,0.0,0.0,83,0.00,,,0.94,Weather View 32 v70,2013-06-29 18:10:00,
2013-06-29 14:15:00,88.0,82.2,29.70,North,360,0.0,0.0,83,0.00,,,0.94,Weather View 32 v70,2013-06-29 18:15:00,
2013-06-29 14:20:00,88.0,82.2,29.69,North,360,0.0,0.0,83,0.00,,,0.94,Weather View 32 v70,2013-06-29 18:20:00,
2013-06-29 14:25:00,88.0,82.2,29.69,North,360,0.0,0.0,83,0.00,,,0.94,Weather View 32 v70,2013-06-29 18:25:00,
2013-06-29 14:35:00,89.0,83.1,29.70,NW,315,0.0,0.0,83,0.00,,,0.94,Weather View 32 v70,2013-06-29 18:35:00,
2013-06-29 14:40:00,89.0,83.1,29.69,East,90,0.0,0.0,83,0.00,,,0.94,Weather View 32 v70,2013-06-29 18:40:00,
2013-06-29 14:45:00,89.0,83.1,29.69,NW,315,0.0,0.0,83,0.00,,,0.94,Weather View 32 v70,2013-06-29 18:45:00,
2013-06-29 14:50:00,89.0,83.1,29.68,East,90,0.0,0.0,83,0.00,,,0.94,Weather View 32 v70,2013-06-29 18:50:00,
2013-06-29 14:55:00,90.0,84.1,29.68,East,90,0.0,0.0,83,0.00,,,0.94,Weather View 32 v70,2013-06-29 18:55:00,
2013-06-29 15:00:00,90.0,84.1,29.68,North,360,0.0,0.0,83,0.00,,,0.94,Weather View 32 v70,2013-06-29 19:00:00,
2013-06-29 15:05:00,90.0,84.1,29.68,NNE,22,0.0,0.0,83,0.00,,,0.94,Weather View 32 v70,2013-06-29 19:05:00,
2013-06-29 15:10:00,90.0,84.1,29.68,North,360,0.0,0.0,83,0.00,,,0.94,Weather View 32 v70,2013-06-29 19:10:00,
2013-06-29 15:15:00,91.0,85.1,29.68,NE,45,0.0,0.0,83,0.00,,,0.94,Weather View 32 v70,2013-06-29 19:15:00,
2013-06-29 15:20:00,91.0,85.1,29.67,NW,315,0.0,0.0,83,0.00,,,0.94,Weather View 32 v70,2013-06-29 19:20:00,
2013-06-29 15:25:00,91.0,85.1,29.67,NW,315,0.0,0.0,83,0.00,,,0.94,Weather View 32 v70,2013-06-29 19:25:00,
2013-06-29 15:30:00,92.0,86.4,29.66,North,360,0.0,0.0,84,0.00,,,0.94,Weather View 32 v70,2013-06-29 19:30:00,
2013-06-29 15:35:00,92.0,86.4,29.66,WNW,292,0.0,0.0,84,0.00,,,0.94,Weather View 32 v70,2013-06-29 19:35:00,
2013-06-29 15:45:00,93.0,87.4,29.66,WNW,292,0.0,0.0,84,0.00,,,0.94,Weather View 32 v70,2013-06-29 19:45:00,
2013-06-29 15:50:00,93.0,87.4,29.67,NW,315,0.0,0.0,84,0.00,,,0.94,Weather View 32 v70,2013-06-29 19:50:00,
2013-06-29 15:55:00,92.0,86.4,29.67,NW,315,0.0,0.0,84,0.00,,,0.94,Weather View 32 v70,2013-06-29 19:55:00,
2013-06-29 16:00:00,92.0,86.4,29.68,NE,45,0.0,0.0,84,0.00,,,0.94,Weather View 32 v70,2013-06-29 20:00:00,
2013-06-29 16:05:00,91.0,85.1,29.68,NE,45,0.0,0.0,83,0.00,,,0.94,Weather View 32 v70,2013-06-29 20:05:00,
2013-06-29 16:10:00,91.0,85.1,29.68,NE,45,0.0,0.0,83,0.00,,,0.94,Weather View 32 v70,2013-06-29 20:10:00,
2013-06-29 16:15:00,91.0,85.1,29.68,NE,45,0.0,0.0,83,0.00,,,0.94,Weather View 32 v70,2013-06-29 20:15:00,
2013-06-29 16:20:00,90.0,84.1,29.68,NE,45,0.0,0.0,83,0.00,,,0.94,Weather View 32 v70,2013-06-29 20:20:00,
2013-06-29 16:25:00,90.0,84.1,29.68,NE,45,0.0,0.0,83,0.00,,,0.94,Weather View 32 v70,2013-06-29 20:25:00,
2013-06-29 16:30:00,90.0,84.1,29.69,NE,45,0.0,0.0,83,0.00,,,0.94,Weather View 32 v70,2013-06-29 20:30:00,
2013-06-29 16:40:00,89.0,83.1,29.69,NE,45,0.0,0.0,83,0.00,,,0.94,Weather View 32 v70,2013-06-29 20:40:00,
2013-06-29 16:49:00,88.0,82.2,29.69,NE,45,0.0,0.0,83,0.00,,,0.94,Weather View 32 v70,2013-06-29 20:49:00,
2013-06-29 16:55:00,88.0,82.2,29.69,NE,45,0.0,0.0,83,0.00,,,0.94,Weather View 32 v70,2013-06-29 20:55:00,
2013-06-29 17:00:00,87.0,81.2,29.69,NE,45,0.0,0.0,83,0.00,,,0.94,Weather View 32 v70,2013-06-29 21:00:00,
2013-06-29 17:05:00,87.0,81.2,29.69,NE,45,0.0,0.0,83,0.00,,,0.94,Weather View 32 v70,2013-06-29 21:05:00,
2013-06-29 17:10:00,87.0,81.2,29.68,NE,45,0.0,0.0,83,0.00,,,0.94,Weather View 32 v70,2013-06-29 21:10:00,
2013-06-29 17:15:00,87.0,81.2,29.68,NE,45,0.0,0.0,83,0.00,,,0.94,Weather View 32 v70,2013-06-29 21:15:00,
2013-06-29 17:20:00,87.0,81.2,29.69,NW,315,0.0,0.0,83,0.00,,,0.94,Weather View 32 v70,2013-06-29 21:20:00,
2013-06-29 17:25:00,87.0,81.2,29.69,NE,45,0.0,0.0,83,0.00,,,0.94,Weather View 32 v70,2013-06-29 21:25:00,
2013-06-29 17:30:00,87.0,81.2,29.68,West,270,0.0,0.0,83,0.00,,,0.94,Weather View 32 v70,2013-06-29 21:30:00,
2013-06-29 17:35:00,87.0,81.2,29.68,NE,45,0.0,0.0,83,0.00,,,0.94,Weather View 32 v70,2013-06-29 21:35:00,
2013-06-29 17:40:00,86.0,80.2,29.70,NE,45,0.0,0.0,83,0.00,,,0.94,Weather View 32 v70,2013-06-29 21:40:00,
2013-06-29 17:45:00,86.0,80.2,29.70,NE,45,0.0,0.0,83,0.00,,,0.94,Weather View 32 v70,2013-06-29 21:45:00,
2013-06-29 17:50:00,86.0,80.2,29.70,NE,45,0.0,0.0,83,0.00,,,0.94,Weather View 32 v70,2013-06-29 21:50:00,
2013-06-29 17:55:00,86.0,80.2,29.70,NW,315,0.0,0.0,83,0.00,,,0.94,Weather View 32 v70,2013-06-29 21:55:00,
2013-06-29 18:00:00,86.0,80.2,29.69,NE,45,0.0,0.0,83,0.00,,,0.94,Weather View 32 v70,2013-06-29 22:00:00,
2013-06-29 18:10:00,85.0,79.2,29.70,NW,315,0.0,0.0,83,0.00,,,0.94,Weather View 32 v70,2013-06-29 22:10:00,
2013-06-29 18:15:00,85.0,79.2,29.70,NW,315,0.0,0.0,83,0.00,,,0.94,Weather View 32 v70,2013-06-29 22:15:00,
2013-06-29 18:20:00,85.0,79.2,29.70,NW,315,0.0,0.0,83,0.00,,,0.94,Weather View 32 v70,2013-06-29 22:20:00,
2013-06-29 18:25:00,85.0,79.2,29.70,NW,315,0.0,0.0,83,0.00,,,0.94,Weather View 32 v70,2013-06-29 22:25:00,
2013-06-29 18:30:00,84.0,77.9,29.70,NW,315,0.0,0.0,82,0.00,,,0.94,Weather View 32 v70,2013-06-29 22:30:00,
2013-06-29 18:35:00,84.0,77.9,29.70,NW,315,0.0,0.0,82,0.00,,,0.94,Weather View 32 v70,2013-06-29 22:35:00,
2013-06-29 18:40:00,84.0,77.9,29.70,NW,315,0.0,0.0,82,0.00,,,0.94,Weather View 32 v70,2013-06-29 22:40:00,
2013-06-29 18:45:00,84.0,77.9,29.70,NW,315,0.0,0.0,82,0.00,,,0.94,Weather View 32 v70,2013-06-29 22:45:00,
2013-06-29 18:50:00,83.0,76.5,29.71,NW,315,0.0,0.0,81,0.00,,,0.94,Weather View 32 v70,2013-06-29 22:50:00,
2013-06-29 19:00:00,83.0,76.5,29.71,NW,315,0.0,0.0,81,0.00,,,0.94,Weather View 32 v70,2013-06-29 23:00:00,
2013-06-29 19:05:00,83.0,76.5,29.71,NW,315,0.0,0.0,81,0.00,,,0.94,Weather View 32 v70,2013-06-29 23:05:00,
2013-06-29 19:10:00,82.0,75.6,29.72,NW,315,0.0,0.0,81,0.00,,,0.94,Weather View 32 v70,2013-06-29 23:10:00,
2013-06-29 19:15:00,82.0,75.6,29.72,NW,315,0.0,0.0,81,0.00,,,0.94,Weather View 32 v70,2013-06-29 23:15:00,
2013-06-29 19:20:00,82.0,75.6,29.72,NW,315,0.0,0.0,81,0.00,,,0.94,Weather View 32 v70,2013-06-29 23:20:00,
2013-06-29 19:30:00,81.0,74.6,29.72,NW,315,0.0,0.0,81,0.00,,,0.94,Weather View 32 v70,2013-06-29 23:30:00,
2013-06-29 19:35:00,81.0,74.6,29.72,NW,315,0.0,0.0,81,0.00,,,0.94,Weather View 32 v70,2013-06-29 23:35:00,
2013-06-29 19:40:00,81.0,74.6,29.72,NW,315,0.0,0.0,81,0.00,,,0.94,Weather View 32 v70,2013-06-29 23:40:00,
2013-06-29 19:45:00,81.0,74.6,29.72,NW,315,0.0,0.0,81,0.00,,,0.94,Weather View 32 v70,2013-06-29 23:45:00,
2013-06-29 19:50:00,81.0,74.6,29.73,NW,315,0.0,0.0,81,0.00,,,0.94,Weather View 32 v70,2013-06-29 23:50:00,
2013-06-29 19:55:00,80.0,73.6,29.73,NW,315,0.0,0.0,81,0.00,,,0.94,Weather View 32 v70,2013-06-29 23:55:00,
2013-06-29 20:00:00,80.0,73.6,29.73,NW,315,0.0,0.0,81,0.00,,,0.94,Weather View 32 v70,2013-06-30 00:00:00,
2013-06-29 20:05:00,80.0,73.6,29.73,NW,315,0.0,0.0,81,0.00,,,0.94,Weather View 32 v70,2013-06-30 00:05:00,
2013-06-29 20:10:00,80.0,73.6,29.74,NW,315,0.0,0.0,81,0.00,,,0.94,Weather View 32 v70,2013-06-30 00:10:00,
2013-06-29 20:15:00,80.0,73.6,29.74,NW,315,0.0,0.0,81,0.00,,,0.94,Weather View 32 v70,2013-06-30 00:15:00,
2013-06-29 20:20:00,80.0,73.6,29.74,NW,315,0.0,0.0,81,0.00,,,0.94,Weather View 32 v70,2013-06-30 00:20:00,
2013-06-29 20:25:00,79.0,72.6,29.74,NW,315,0.0,0.0,81,0.00,,,0.94,Weather View 32 v70,2013-06-30 00:25:00,
2013-06-29 20:30:00,79.0,72.6,29.74,NW,315,0.0,0.0,81,0.00,,,0.94,Weather View 32 v70,2013-06-30 00:30:00,
2013-06-29 20:40:00,79.0,72.6,29.74,NW,315,0.0,0.0,81,0.00,,,0.94,Weather View 32 v70,2013-06-30 00:40:00,
2013-06-29 20:45:00,79.0,72.6,29.74,NW,315,0.0,0.0,81,0.00,,,0.94,Weather View 32 v70,2013-06-30 00:45:00,
2013-06-29 20:50:00,79.0,72.6,29.75,NW,315,0.0,0.0,81,0.00,,,0.94,Weather View 32 v70,2013-06-30 00:50:00,
2013-06-29 20:55:00,79.0,72.6,29.75,East,90,0.0,0.0,81,0.00,,,0.94,Weather View 32 v70,2013-06-30 00:55:00,
2013-06-29 21:00:00,79.0,72.6,29.75,East,90,0.0,0.0,81,0.00,,,0.94,Weather View 32 v70,2013-06-30 01:00:00,
2013-06-29 21:05:00,78.0,71.7,29.75,East,90,0.0,0.0,81,0.00,,,0.94,Weather View 32 v70,2013-06-30 01:05:00,
2013-06-29 21:10:00,78.0,71.7,29.76,East,90,0.0,0.0,81,0.00,,,0.94,Weather View 32 v70,2013-06-30 01:10:00,
2013-06-29 21:15:00,78.0,71.7,29.76,East,90,0.0,0.0,81,0.00,,,0.94,Weather View 32 v70,2013-06-30 01:15:00,
2013-06-29 21:20:00,78.0,71.7,29.76,North,360,0.0,0.0,81,0.00,,,0.94,Weather View 32 v70,2013-06-30 01:20:00,
2013-06-29 21:25:00,78.0,71.7,29.76,North,360,0.0,0.0,81,0.00,,,0.94,Weather View 32 v70,2013-06-30 01:25:00,
2013-06-29 21:30:00,78.0,71.7,29.76,North,360,0.0,0.0,81,0.00,,,0.94,Weather View 32 v70,2013-06-30 01:30:00,
2013-06-29 21:40:00,78.0,71.7,29.76,North,360,0.0,0.0,81,0.00,,,0.94,Weather View 32 v70,2013-06-30 01:40:00,
2013-06-29 21:45:00,78.0,71.7,29.76,North,360,0.0,0.0,81,0.00,,,0.94,Weather View 32 v70,2013-06-30 01:45:00,
2013-06-29 21:50:00,78.0,71.7,29.77,North,360,0.0,0.0,81,0.00,,,0.94,Weather View 32 v70,2013-06-30 01:50:00,
2013-06-29 21:55:00,78.0,71.7,29.77,North,360,0.0,0.0,81,0.00,,,0.94,Weather View 32 v70,2013-06-30 01:55:00,
2013-06-29 22:00:00,78.0,71.7,29.76,North,360,0.0,0.0,81,0.00,,,0.94,Weather View 32 v70,2013-06-30 02:00:00,
2013-06-29 22:05:00,77.0,70.7,29.76,North,360,0.0,0.0,81,0.00,,,0.94,Weather View 32 v70,2013-06-30 02:05:00,
2013-06-29 22:10:00,77.0,70.7,29.77,North,360,0.0,0.0,81,0.00,,,0.94,Weather View 32 v70,2013-06-30 02:10:00,
2013-06-29 22:15:00,77.0,70.7,29.77,North,360,0.0,0.0,81,0.00,,,0.94,Weather View 32 v70,2013-06-30 02:15:00,
2013-06-29 22:20:00,77.0,70.7,29.77,North,360,0.0,0.0,81,0.00,,,0.94,Weather View 32 v70,2013-06-30 02:20:00,
2013-06-29 22:25:00,77.0,70.3,29.77,North,360,0.0,0.0,80,0.00,,,0.94,Weather View 32 v70,2013-06-30 02:25:00,
2013-06-29 22:30:00,77.0,70.3,29.78,North,360,0.0,0.0,80,0.00,,,0.94,Weather View 32 v70,2013-06-30 02:30:00,
2013-06-29 22:35:00,77.0,70.3,29.78,North,360,0.0,0.0,80,0.00,,,0.94,Weather View 32 v70,2013-06-30 02:35:00,
2013-06-29 22:40:00,77.0,70.3,29.78,North,360,0.0,0.0,80,0.00,,,0.94,Weather View 32 v70,2013-06-30 02:40:00,
2013-06-29 22:45:00,77.0,70.3,29.78,North,360,0.0,0.0,80,0.00,,,0.94,Weather View 32 v70,2013-06-30 02:45:00,
2013-06-29 22:50:00,76.0,69.4,29.79,East,90,0.0,0.0,80,0.00,,,0.94,Weather View 32 v70,2013-06-30 02:50:00,
2013-06-29 23:00:00,76.0,69.4,29.79,North,360,0.0,0.0,80,0.00,,,0.94,Weather View 32 v70,2013-06-30 03:00:00,
2013-06-29 23:05:00,76.0,69.4,29.79,North,360,0.0,0.0,80,0.00,,,0.94,Weather View 32 v70,2013-06-30 03:05:00,
2013-06-29 23:10:00,76.0,69.4,29.79,NE,45,0.0,0.0,80,0.00,,,0.94,Weather View 32 v70,2013-06-30 03:10:00,
2013-06-29 23:15:00,76.0,69.4,29.79,WNW,292,0.0,0.0,80,0.00,,,0.94,Weather View 32 v70,2013-06-30 03:15:00,
2013-06-29 23:20:00,76.0,69.4,29.79,WNW,292,0.0,0.0,80,0.00,,,0.94,Weather View 32 v70,2013-06-30 03:20:00,
2013-06-29 23:25:00,76.0,69.4,29.79,WNW,292,0.0,0.0,80,0.00,,,0.94,Weather View 32 v70,2013-06-30 03:25:00,
2013-06-29 23:30:00,76.0,69.4,29.80,WNW,292,0.0,0.0,80,0.00,,,0.94,Weather View 32 v70,2013-06-30 03:30:00,
2013-06-29 23:35:00,76.0,69.4,29.80,WNW,292,0.0,0.0,80,0.00,,,0.94,Weather View 32 v70,2013-06-30 03:35:00,
2013-06-29 23:40:00,76.0,69.4,29.79,WNW,292,0.0,0.0,80,0.00,,,0.94,Weather View 32 v70,2013-06-30 03:40:00,
2013-06-29 23:45:00,76.0,69.4,29.79,WNW,292,0.0,0.0,80,0.00,,,0.94,Weather View 32 v70,2013-06-30 03:45:00,
2013-06-29 23:50:00,76.0,69.4,29.79,WNW,292,0.0,0.0,80,0.00,,,0.94,Weather View 32 v70,2013-06-30 03:50:00,
2013-06-29 23:55:00,76.0,69.4,29.79,WNW,292,0.0,0.0,80,0.00,,,0.94,Weather View 32 v70,2013-06-30 03:55:00,